deformed-offering

Nearby METAR Reports

 

KSJC - San Jose, California, USA
Distance from station: NE 9mi, 14km
Updated: Fri, 18-Jun-2021 9:53pm PDT
Clear
Clear
 Wind from NW
Wind: NW 6 mph , 9 km/h
Temperature: 72°F , 22°C
Dew Point: 57°F , 14°C
Humidity: 61%
Barometer: 29.73 inHg , 1006.8 hPa
Clouds: Clear
Visibility: 10 miles , 16 km
2021/06/19 04:53 KSJC 190453Z 32005KT 10SM CLR 22/14 A2973 RMK AO2 SLP065 T02170139
KRHV - San Jose/Reid, California, USA
Distance from station: ENE 12mi, 19km
Updated: Fri, 18-Jun-2021 9:47pm PDT
Clear
Clear
 Wind from WNW
Wind: WNW 6 mph , 9 km/h
Temperature: 75°F , 24°C
Dew Point: 54°F , 12°C
Humidity: 47%
Barometer: 29.73 inHg , 1006.8 hPa
Clouds: Clear
Visibility: 10 miles , 16 km
2021/06/19 04:47 KRHV 190447Z 30005KT 10SM SKC 24/12 A2973 RMK LAST
 
KPAO - Palo Alto, California, USA
Distance from station: NNW 14mi, 23km
Updated: Fri, 18-Jun-2021 8:47pm PDT
NOT Current
Clear
Clear
 Wind from NW
Wind: NW 10 mph , 17 km/h
Temperature: 66°F , 19°C
Dew Point: 57°F , 14°C
Humidity: 73%
Barometer: 29.71 inHg , 1006.1 hPa
Clouds: Clear
Visibility: 10 miles , 16 km
2021/06/19 03:47 KPAO 190347Z 32009KT 10SM SKC 19/14 A2971 RMK LAST
KSQL - San Carlos Airpo, California, USA
Distance from station: NW 21mi, 34km
Updated: Fri, 18-Jun-2021 10:35pm PDT
Clear
Clear
 Wind from calm
Wind: Calm
Temperature: 64°F , 18°C
Dew Point: 55°F , 13°C
Humidity: 73%
Barometer: 29.74 inHg , 1007.1 hPa
Clouds: Clear
Visibility: 8 miles , 13 km
2021/06/19 05:35 KSQL 190535Z AUTO 00000KT 8SM CLR 18/13 A2974 RMK AO2
 
KWVI - Watsonville, California, USA
Distance from station: SSE 27mi, 44km
Updated: Fri, 18-Jun-2021 9:53pm PDT
Mist, Clear
Mist, Clear
 Wind from SSW
Wind: SSW 5 mph , 7 km/h
Temperature: 57°F , 14°C
Dew Point: 54°F , 12°C
Humidity: 88%
Barometer: 29.78 inHg , 1008.5 hPa
Summary: Mist
Clouds: Clear
Visibility: 6 miles , 10 km
2021/06/19 04:53 KWVI 190453Z AUTO 21004KT 6SM BR CLR 14/12 A2978 RMK AO2 SLP082 T01390122
KHWD - Hayward, California, USA
Distance from station: N 28mi, 44km
Updated: Fri, 18-Jun-2021 9:54pm PDT
Clear
Clear
 Wind from NW
Wind: NW 7 mph , 11 km/h
Temperature: 64°F , 18°C
Dew Point: 52°F , 11°C
Humidity: 64%
Barometer: 29.72 inHg , 1006.4 hPa
Clouds: Clear
Visibility: 10 miles , 16 km
2021/06/19 04:54 KHWD 190454Z 31006KT 10SM CLR 18/11 A2972 RMK AO2 SLP073 T01830106
 
KSFO - San Francisco, California, USA
Distance from station: NW 30mi, 49km
Updated: Fri, 18-Jun-2021 9:56pm PDT
Few Clouds
Few Clouds
 Wind from WNW
Wind: WNW 13 mph , 20 km/h
Temperature: 63°F , 17°C
Dew Point: 52°F , 11°C
Humidity: 68%
Barometer: 29.73 inHg , 1006.8 hPa
Clouds: Few Clouds
Visibility: 10 miles , 16 km
Cloud details: Few Clouds 700 ft
2021/06/19 04:56 KSFO 190456Z 30011KT 10SM FEW007 17/11 A2973 RMK AO2 SLP065 T01670111
KHAF - Half Moon Bay, California, USA
Distance from station: WNW 31mi, 50km
Updated: Fri, 18-Jun-2021 10:35pm PDT
Mist, Mostly cloudy
Mist, Mostly cloudy
 Wind from SSE
Wind: SSE 8 mph , 13 km/h
Temperature: 55°F , 13°C
Dew Point: 54°F , 12°C
Humidity: 94%
Barometer: 29.78 inHg , 1008.5 hPa
Summary: Mist
Clouds: Mostly Cloudy
Visibility: 3 miles , 5 km
Cloud details: Mostly Cloudy 300 ft
2021/06/19 05:35 KHAF 190535Z AUTO 16007KT 3SM BR BKN003 13/12 A2978 RMK AO2
 
KLVK - Livermore, California, USA
Distance from station: NNE 31mi, 51km
Updated: Fri, 18-Jun-2021 9:53pm PDT
Clear
Clear
 Wind from WSW
Wind: WSW 9 mph , 15 km/h
Temperature: 79°F , 26°C
Dew Point: 45°F , 7°C
Humidity: 30%
Barometer: 29.70 inHg , 1005.8 hPa
Clouds: Clear
Visibility: 10 miles , 16 km
2021/06/19 04:53 KLVK 190453Z 25008KT 10SM CLR 26/07 A2970 RMK AO2 SLP052 T02560067
KOAK - Oakland, California, USA
Distance from station: NNW 33mi, 53km
Updated: Fri, 18-Jun-2021 9:53pm PDT
Clear
Clear
 Wind from NNW
Wind: NNW 5 mph , 7 km/h
Temperature: 63°F , 17°C
Dew Point: 54°F , 12°C
Humidity: 73%
Barometer: 29.73 inHg , 1006.8 hPa
Clouds: Clear
Visibility: 10 miles , 16 km
2021/06/19 04:53 KOAK 190453Z 33004KT 10SM CLR 17/12 A2973 RMK AO2 SLP067 T01670117
 
KCVH - Hollister Muni, California, USA
Distance from station: SE 42mi, 68km
Updated: Fri, 18-Jun-2021 10:35pm PDT
Clear
Clear
 Wind from S
Wind: S 5 mph , 7 km/h
Temperature: 64°F , 18°C
Dew Point: 52°F , 11°C
Humidity: 64%
Barometer: 29.79 inHg , 1008.8 hPa
Clouds: Clear
Visibility: 10 miles , 16 km
2021/06/19 05:35 KCVH 190535Z AUTO 19004KT 10SM CLR 18/11 A2979 RMK A01
KSNS - Salinas, California, USA
Distance from station: SSE 48mi, 77km
Updated: Fri, 18-Jun-2021 10:07pm PDT
Mostly Cloudy
Mostly Cloudy
 Wind from NW
Wind: NW 9 mph , 15 km/h
Temperature: 59°F , 15°C
Dew Point: 54°F , 12°C
Humidity: 82%
Barometer: 29.78 inHg , 1008.5 hPa
Clouds: Mostly Cloudy
Visibility: 7 miles , 11 km
Cloud details: Mostly Cloudy 1200 ft
2021/06/19 05:07 KSNS 190507Z AUTO 31008KT 7SM BKN012 15/12 A2978 RMK AO2 T01500122
 
KMRY - Monterey, California, USA
Distance from station: SSE 49mi, 78km
Updated: Fri, 18-Jun-2021 9:54pm PDT
Clear
Clear
 Wind from E
Wind: E 3 mph , 6 km/h
Temperature: 61°F , 16°C
Dew Point: 54°F , 12°C
Humidity: 77%
Barometer: 29.78 inHg , 1008.5 hPa
Clouds: Clear
Visibility: 9 miles , 14 km
2021/06/19 04:54 KMRY 190454Z AUTO 10003KT 9SM CLR 16/12 A2978 RMK AO2 SLP096 T01560117
KCCR - Concord, California, USA
Distance from station: N 50mi, 81km
Updated: Fri, 18-Jun-2021 9:53pm PDT
Clear
Clear
 Wind from SW
Wind: SW 8 mph , 13 km/h
Temperature: 82°F , 28°C
Dew Point: 37°F , 3°C
Humidity: 20%
Barometer: 29.68 inHg , 1005.1 hPa
Clouds: Clear
Visibility: 10 miles , 16 km
2021/06/19 04:53 KCCR 190453Z 22007KT 10SM CLR 28/03 A2968 RMK AO2 SLP038 T02830028
deformed-offering